createdAt,value
2018-04-06T00:01:25.124Z,81.00
2018-04-06T00:03:53.364Z,81.50
2018-04-06T00:06:21.060Z,81.40
2018-04-06T00:08:48.522Z,81.30
2018-04-06T00:11:16.749Z,81.70
2018-04-06T00:13:44.250Z,81.70
2018-04-06T00:16:11.710Z,81.80
2018-04-06T00:18:39.944Z,82.10
2018-04-06T00:21:07.407Z,82.00
2018-04-06T00:23:34.895Z,82.00
2018-04-06T00:26:03.157Z,82.60
2018-04-06T00:28:30.631Z,82.90
2018-04-06T00:30:58.857Z,82.70
2018-04-06T00:33:26.326Z,82.40
2018-04-06T00:35:53.778Z,83.10
2018-04-06T00:38:21.256Z,83.10
2018-04-06T00:40:48.711Z,82.80
2018-04-06T00:43:16.280Z,83.00
2018-04-06T00:45:43.841Z,83.40
2018-04-06T00:48:11.385Z,83.30
2018-04-06T00:50:38.840Z,83.50
2018-04-06T00:56:08.313Z,83.20
2018-04-06T00:58:35.830Z,83.60
2018-04-06T01:01:03.311Z,84.00
2018-04-06T01:03:31.540Z,84.50
2018-04-06T01:05:59.045Z,84.30
2018-04-06T01:08:27.349Z,84.50
2018-04-06T01:10:54.792Z,84.50
2018-04-06T01:13:22.258Z,84.80
2018-04-06T01:15:49.730Z,85.10
2018-04-06T01:18:17.219Z,85.20
2018-04-06T01:20:44.771Z,85.40
2018-04-06T01:23:12.236Z,85.40
2018-04-06T01:25:39.693Z,85.70
2018-04-06T01:28:07.159Z,85.60
2018-04-06T01:30:34.713Z,86.00
2018-04-06T01:33:02.176Z,86.10
2018-04-06T01:35:29.732Z,86.10
2018-04-06T01:37:57.192Z,87.10
2018-04-06T01:40:24.660Z,86.60
2018-04-06T01:42:52.881Z,87.10
2018-04-06T01:45:20.364Z,87.00
2018-04-06T01:47:47.816Z,87.40
2018-04-06T01:50:15.274Z,87.90
2018-04-06T01:52:42.838Z,88.00
2018-04-06T01:55:10.305Z,88.10
2018-04-06T01:57:37.753Z,88.50
2018-04-06T02:00:05.216Z,88.10
2018-04-06T02:02:32.704Z,88.40
2018-04-06T02:05:00.161Z,88.70
2018-04-06T02:07:27.611Z,89.00
2018-04-06T02:09:55.840Z,89.20
2018-04-06T02:12:23.292Z,89.20
2018-04-06T02:14:50.761Z,89.50
2018-04-06T02:17:18.320Z,89.60
2018-04-06T02:19:45.873Z,89.70
2018-04-06T02:22:13.332Z,89.80
2018-04-06T02:24:40.945Z,90.10
2018-04-06T02:27:08.319Z,90.20
2018-04-06T02:29:35.781Z,90.20
2018-04-06T02:32:03.268Z,90.00
2018-04-06T02:34:30.837Z,90.00
2018-04-06T02:36:58.308Z,90.00
2018-04-06T02:39:26.560Z,90.20
2018-04-06T02:41:54.011Z,90.10
2018-04-06T02:44:21.497Z,90.30
2018-04-06T02:46:49.743Z,90.30
2018-04-06T02:49:17.226Z,90.30
2018-04-06T02:51:45.483Z,90.30
2018-04-06T02:54:12.936Z,90.30
2018-04-06T02:56:40.405Z,90.20
2018-04-06T02:59:07.880Z,90.30
2018-04-06T03:01:36.116Z,90.60
2018-04-06T03:04:03.576Z,90.60
2018-04-06T03:06:31.146Z,90.70
2018-04-06T03:08:58.599Z,90.70
2018-04-06T03:11:26.064Z,90.70
2018-04-06T03:13:53.519Z,90.80
2018-04-06T03:16:21.064Z,91.20
2018-04-06T03:18:48.521Z,90.80
2018-04-06T03:21:15.980Z,90.90
2018-04-06T03:23:43.435Z,91.10
2018-04-06T03:26:10.887Z,91.10
2018-04-06T03:28:38.339Z,91.00
2018-04-06T03:31:05.818Z,91.10
2018-04-06T03:33:33.363Z,91.20
2018-04-06T03:36:00.837Z,91.20
2018-04-06T03:38:28.440Z,91.30
2018-04-06T03:40:56.410Z,91.20
2018-04-06T03:43:23.871Z,91.30
2018-04-06T03:45:51.347Z,91.40
2018-04-06T03:48:18.810Z,91.30
2018-04-06T03:50:46.268Z,91.30
2018-04-06T03:53:13.769Z,91.40
2018-04-06T03:55:41.283Z,91.30
2018-04-06T03:58:09.075Z,91.40
2018-04-06T04:00:37.329Z,91.80
2018-04-06T04:03:04.796Z,91.60
2018-04-06T04:05:32.267Z,91.60
2018-04-06T04:08:00.500Z,91.70
2018-04-06T04:10:27.977Z,91.70
2018-04-06T04:12:55.536Z,91.70
2018-04-06T04:15:23.095Z,91.70
2018-04-06T04:17:50.650Z,91.70
2018-04-06T04:20:18.113Z,91.70
2018-04-06T04:22:45.577Z,91.90
2018-04-06T04:25:13.046Z,91.80
2018-04-06T04:27:41.273Z,91.80
2018-04-06T04:30:08.721Z,91.70
2018-04-06T04:32:36.192Z,91.80
2018-04-06T04:35:03.668Z,91.80
2018-04-06T04:37:31.129Z,91.70
2018-04-06T04:39:58.606Z,91.80
2018-04-06T04:42:26.065Z,91.80
2018-04-06T04:44:54.295Z,91.60
2018-04-06T04:47:21.757Z,91.60
2018-04-06T04:49:49.215Z,91.70
2018-04-06T04:52:16.688Z,91.70
2018-04-06T04:54:44.141Z,91.70
2018-04-06T04:57:11.705Z,91.70
2018-04-06T04:59:39.934Z,91.80
2018-04-06T05:02:07.490Z,91.80
2018-04-06T05:04:35.001Z,91.70
2018-04-06T05:07:02.512Z,91.90
2018-04-06T05:09:30.100Z,91.90
2018-04-06T05:11:57.573Z,91.50
2018-04-06T05:14:25.026Z,91.40
2018-04-06T05:16:52.572Z,91.50
2018-04-06T05:19:20.359Z,91.50
2018-04-06T05:21:47.965Z,91.50
2018-04-06T05:24:15.434Z,91.50
2018-04-06T05:26:42.888Z,91.10
2018-04-06T05:29:10.493Z,91.20
2018-04-06T05:31:38.168Z,91.10
2018-04-06T05:34:06.641Z,91.10
2018-04-06T05:36:34.959Z,91.00
2018-04-06T05:39:02.423Z,91.00
2018-04-06T05:41:29.906Z,90.90
2018-04-06T05:43:57.365Z,90.80
2018-04-06T05:46:24.843Z,90.80
2018-04-06T05:48:53.128Z,91.00
2018-04-06T05:51:21.450Z,90.80
2018-04-06T05:53:49.073Z,90.80
2018-04-06T05:56:17.296Z,90.80
2018-04-06T05:58:44.976Z,90.70
2018-04-06T06:01:12.433Z,90.80
2018-04-06T06:03:39.903Z,90.80
2018-04-06T06:06:08.344Z,90.70
2018-04-06T06:08:35.808Z,90.60
2018-04-06T06:11:03.352Z,90.60
2018-04-06T06:13:30.804Z,90.60
2018-04-06T06:15:58.329Z,90.70
2018-04-06T06:18:26.532Z,90.30
2018-04-06T06:20:54.047Z,90.30
2018-04-06T06:23:22.434Z,90.40
2018-04-06T06:25:50.781Z,90.30
2018-04-06T06:28:18.268Z,90.30
2018-04-06T06:30:46.574Z,90.10
2018-04-06T06:33:14.043Z,90.20
2018-04-06T06:35:41.654Z,90.30
2018-04-06T06:38:09.896Z,90.40
2018-04-06T06:40:37.366Z,90.40
2018-04-06T06:43:04.873Z,90.50
2018-04-06T06:45:33.093Z,90.00
2018-04-06T06:48:00.658Z,89.90
2018-04-06T06:50:28.226Z,89.50
2018-04-06T06:52:55.704Z,89.00
2018-04-06T06:55:23.928Z,89.30
2018-04-06T06:57:51.396Z,89.20
2018-04-06T07:00:18.851Z,89.30
2018-04-06T07:02:46.465Z,88.90
2018-04-06T07:05:14.157Z,88.70
2018-04-06T07:07:41.750Z,86.60
2018-04-06T07:10:09.307Z,86.60
2018-04-06T07:12:36.952Z,87.20
2018-04-06T07:15:04.595Z,87.60
2018-04-06T07:17:32.136Z,88.00
2018-04-06T07:19:59.633Z,86.60
2018-04-06T07:22:27.104Z,85.70
2018-04-06T07:24:54.658Z,85.20
2018-04-06T07:27:22.168Z,85.10
2018-04-06T07:29:49.647Z,84.70
2018-04-06T07:32:17.096Z,84.20
2018-04-06T07:34:44.575Z,84.20
2018-04-06T07:37:12.028Z,83.60
2018-04-06T07:39:39.487Z,83.40
2018-04-06T07:42:06.959Z,82.70
2018-04-06T07:44:34.422Z,82.80
2018-04-06T07:47:01.895Z,81.90
2018-04-06T07:49:30.108Z,80.90
2018-04-06T07:51:57.571Z,80.90
2018-04-06T07:54:25.452Z,80.00
2018-04-06T07:56:53.411Z,78.60
2018-04-06T07:59:21.558Z,78.10
2018-04-06T08:01:50.067Z,78.50
2018-04-06T08:04:17.597Z,78.00
2018-04-06T08:06:45.058Z,77.40
2018-04-06T08:09:12.645Z,78.50
2018-04-06T08:11:40.142Z,77.20
2018-04-06T08:14:08.391Z,75.70
2018-04-06T08:16:35.906Z,75.60
2018-04-06T08:19:03.362Z,74.30
2018-04-06T08:21:30.820Z,73.90
2018-04-06T08:23:58.317Z,75.00
2018-04-06T08:26:25.789Z,73.80
2018-04-06T08:28:53.243Z,72.30
2018-04-06T08:31:20.701Z,71.00
2018-04-06T08:33:48.961Z,70.70
2018-04-06T08:36:16.416Z,70.40
2018-04-06T08:38:43.872Z,69.30
2018-04-06T08:41:11.495Z,68.90
2018-04-06T08:43:38.937Z,68.00
2018-04-06T08:46:06.409Z,69.60
2018-04-06T08:48:33.876Z,69.50
2018-04-06T08:51:01.342Z,65.80
2018-04-06T08:53:28.825Z,63.20
2018-04-06T08:55:56.391Z,62.90
2018-04-06T08:58:23.858Z,60.10
2018-04-06T09:00:52.107Z,62.50
2018-04-06T09:03:19.672Z,62.50
2018-04-06T09:05:47.286Z,59.40
2018-04-06T09:08:14.767Z,57.30
2018-04-06T09:10:42.301Z,56.40
2018-04-06T09:13:09.765Z,57.20
2018-04-06T09:15:37.229Z,56.60
2018-04-06T09:18:04.700Z,55.70
2018-04-06T09:20:32.172Z,55.90
2018-04-06T09:22:59.641Z,53.80
2018-04-06T09:25:28.252Z,55.30
2018-04-06T09:27:55.771Z,55.20
2018-04-06T09:30:23.320Z,52.30
2018-04-06T09:32:50.879Z,50.30
2018-04-06T09:35:18.335Z,51.10
2018-04-06T09:37:45.801Z,51.70
2018-04-06T09:40:13.293Z,51.80
2018-04-06T09:42:40.876Z,49.40
2018-04-06T09:45:08.365Z,49.20
2018-04-06T09:47:35.963Z,52.80
2018-04-06T09:50:03.498Z,50.60
2018-04-06T09:52:31.123Z,46.60
2018-04-06T09:54:58.670Z,45.00
2018-04-06T09:57:26.170Z,43.60
2018-04-06T09:59:53.584Z,47.10
2018-04-06T10:02:21.062Z,45.30
2018-04-06T10:04:48.527Z,45.80
2018-04-06T10:07:16.105Z,43.00
2018-04-06T10:09:43.572Z,42.90
2018-04-06T10:12:11.835Z,43.80
2018-04-06T10:14:39.337Z,43.60
2018-04-06T10:17:06.792Z,42.00
2018-04-06T10:19:34.358Z,41.90
2018-04-06T10:22:01.833Z,46.80
2018-04-06T10:24:29.320Z,40.10
2018-04-06T10:26:58.284Z,37.00
2018-04-06T10:29:25.737Z,36.90
2018-04-06T10:31:53.344Z,38.80
2018-04-06T10:34:21.560Z,40.90
2018-04-06T10:36:49.059Z,40.90
2018-04-06T10:39:16.612Z,41.90
2018-04-06T10:41:44.065Z,37.80
2018-04-06T10:44:11.516Z,36.40
2018-04-06T10:46:38.979Z,37.30
2018-04-06T10:49:06.536Z,38.00
2018-04-06T10:51:34.093Z,37.80
2018-04-06T10:54:01.563Z,34.90
2018-04-06T10:56:29.110Z,34.00
2018-04-06T10:58:56.566Z,34.80
2018-04-06T11:01:24.019Z,32.10
2018-04-06T11:03:51.476Z,32.90
2018-04-06T11:06:18.938Z,34.00
2018-04-06T11:08:46.406Z,35.10
2018-04-06T11:11:13.872Z,33.40
2018-04-06T11:13:42.116Z,34.20
2018-04-06T11:16:09.572Z,34.10
2018-04-06T11:18:37.033Z,33.90
2018-04-06T11:21:04.563Z,33.90
2018-04-06T11:23:32.055Z,34.50
2018-04-06T11:25:59.625Z,35.10
2018-04-06T11:28:28.572Z,34.20
2018-04-06T11:30:56.061Z,34.20
2018-04-06T11:33:23.626Z,36.90
2018-04-06T11:35:51.206Z,35.30
2018-04-06T11:38:19.435Z,35.30
2018-04-06T11:40:46.913Z,35.30
2018-04-06T11:43:14.382Z,34.70
2018-04-06T11:45:41.843Z,35.70
2018-04-06T11:48:09.370Z,36.80
2018-04-06T11:50:36.865Z,38.40
2018-04-06T11:53:05.134Z,34.60
2018-04-06T11:55:32.592Z,34.30
2018-04-06T11:58:00.149Z,34.60
2018-04-06T12:00:27.609Z,33.40
2018-04-06T12:02:55.144Z,35.50
2018-04-06T12:05:22.600Z,36.10
2018-04-06T12:07:50.170Z,33.90
2018-04-06T12:10:17.730Z,33.60
2018-04-06T12:12:45.967Z,32.40
2018-04-06T12:15:13.460Z,32.40
2018-04-06T12:17:40.918Z,35.80
2018-04-06T12:20:08.375Z,34.10
2018-04-06T12:22:36.605Z,32.30
2018-04-06T12:25:04.096Z,32.90
2018-04-06T12:27:31.562Z,34.50
2018-04-06T12:29:59.022Z,34.70
2018-04-06T12:32:26.490Z,33.00
2018-04-06T12:34:54.806Z,34.70
2018-04-06T12:37:22.262Z,34.70
2018-04-06T12:39:49.756Z,33.70
2018-04-06T12:42:17.210Z,34.10
2018-04-06T12:44:44.772Z,33.50
2018-04-06T12:47:12.237Z,33.30
2018-04-06T12:49:41.211Z,33.40
2018-04-06T12:52:08.679Z,33.40
2018-04-06T12:54:36.158Z,33.20
2018-04-06T12:57:03.627Z,33.90
2018-04-06T12:59:31.856Z,33.40
2018-04-06T13:01:59.405Z,33.30
2018-04-06T13:04:26.859Z,33.00
2018-04-06T13:06:54.311Z,32.80
2018-04-06T13:09:21.780Z,32.00
2018-04-06T13:11:49.259Z,33.20
2018-04-06T13:14:16.723Z,34.70
2018-04-06T13:16:44.273Z,33.50
2018-04-06T13:19:11.760Z,33.00
2018-04-06T13:21:40.005Z,33.00
2018-04-06T13:24:07.567Z,32.90
2018-04-06T13:26:35.027Z,33.40
2018-04-06T13:29:02.483Z,32.20
2018-04-06T13:31:30.028Z,31.40
2018-04-06T13:33:57.584Z,33.10
2018-04-06T13:36:25.148Z,33.30
2018-04-06T13:38:52.712Z,33.40
2018-04-06T13:41:20.285Z,30.40
2018-04-06T13:43:47.762Z,32.00
2018-04-06T13:46:15.265Z,32.40
2018-04-06T13:48:45.078Z,32.10
2018-04-06T13:51:12.665Z,31.90
2018-04-06T13:53:40.259Z,31.50
2018-04-06T13:56:07.711Z,31.10
2018-04-06T13:58:35.168Z,32.30
2018-04-06T14:01:02.675Z,31.60
2018-04-06T14:03:30.088Z,30.40
2018-04-06T14:05:57.595Z,30.20
2018-04-06T14:08:25.148Z,30.50
2018-04-06T14:10:52.622Z,30.60
2018-04-06T14:13:20.186Z,29.90
2018-04-06T14:15:48.508Z,33.00
2018-04-06T14:18:16.017Z,32.60
2018-04-06T14:20:43.477Z,32.20
2018-04-06T14:23:10.931Z,30.80
2018-04-06T14:25:38.399Z,33.10
2018-04-06T14:28:05.950Z,31.70
2018-04-06T14:30:33.616Z,30.10
2018-04-06T14:33:01.881Z,29.90
2018-04-06T14:35:30.844Z,30.00
2018-04-06T14:37:58.608Z,29.90
2018-04-06T14:40:27.181Z,29.80
2018-04-06T14:42:55.469Z,30.10
2018-04-06T14:45:22.937Z,30.30
2018-04-06T14:47:50.464Z,28.70
2018-04-06T14:50:17.916Z,28.20
2018-04-06T14:52:45.376Z,29.70
2018-04-06T14:55:12.837Z,29.30
2018-04-06T14:57:40.337Z,28.80
2018-04-06T15:00:07.804Z,29.10
2018-04-06T15:02:36.061Z,28.10
2018-04-06T15:05:03.504Z,28.10
2018-04-06T15:07:30.972Z,28.40
2018-04-06T15:09:58.596Z,28.20
2018-04-06T15:12:26.052Z,28.70
2018-04-06T15:14:53.523Z,27.60
2018-04-06T15:17:21.000Z,27.10
2018-04-06T15:19:48.568Z,26.50
2018-04-06T15:22:16.124Z,26.70
2018-04-06T15:24:45.458Z,27.90
2018-04-06T15:27:13.672Z,24.90
2018-04-06T15:29:41.141Z,24.80
2018-04-06T15:32:08.709Z,25.60
2018-04-06T15:34:36.160Z,24.60
2018-04-06T15:37:03.751Z,23.90
2018-04-06T15:39:31.291Z,24.20
2018-04-06T15:41:58.760Z,25.00
2018-04-06T15:44:26.994Z,23.90
2018-04-06T15:46:54.470Z,23.80
2018-04-06T15:49:21.935Z,25.30
2018-04-06T15:51:49.499Z,24.50
2018-04-06T15:54:17.041Z,24.60
2018-04-06T15:56:44.614Z,25.80
2018-04-06T15:59:12.070Z,26.60
2018-04-06T16:01:39.538Z,25.20
2018-04-06T16:04:07.081Z,24.10
2018-04-06T16:06:34.652Z,23.80
2018-04-06T16:09:02.974Z,24.80
2018-04-06T16:11:30.464Z,24.80
2018-04-06T16:13:57.934Z,24.50
2018-04-06T16:16:25.388Z,25.20
2018-04-06T16:18:52.856Z,23.40
2018-04-06T16:21:21.092Z,24.00
2018-04-06T16:23:48.746Z,23.90
2018-04-06T16:26:16.297Z,23.90
2018-04-06T16:28:43.917Z,24.40
2018-04-06T16:31:11.639Z,24.00
2018-04-06T16:33:39.209Z,24.50
2018-04-06T16:36:06.657Z,24.20
2018-04-06T16:38:34.144Z,24.30
2018-04-06T16:41:01.702Z,24.80
2018-04-06T16:43:29.164Z,24.20
2018-04-06T16:45:56.613Z,25.30
2018-04-06T16:48:24.072Z,24.70
2018-04-06T16:50:51.530Z,24.60
2018-04-06T16:53:19.067Z,25.40
2018-04-06T16:55:46.524Z,25.30
2018-04-06T16:58:14.031Z,25.50
2018-04-06T17:00:41.484Z,25.50
2018-04-06T17:03:09.717Z,25.30
2018-04-06T17:05:37.185Z,25.20
2018-04-06T17:08:04.656Z,25.60
2018-04-06T17:10:32.872Z,25.80
2018-04-06T17:13:00.327Z,25.70
2018-04-06T17:15:27.788Z,26.60
2018-04-06T17:17:55.285Z,27.50
2018-04-06T17:20:22.832Z,28.20
2018-04-06T17:22:50.296Z,28.20
2018-04-06T17:25:17.754Z,28.70
2018-04-06T17:27:45.244Z,29.10
2018-04-06T17:30:13.460Z,29.80
2018-04-06T17:32:40.932Z,29.80
2018-04-06T17:35:08.492Z,30.20
2018-04-06T17:37:36.122Z,30.80
2018-04-06T17:40:03.582Z,31.40
2018-04-06T17:42:31.040Z,31.80
2018-04-06T17:44:58.499Z,31.90
2018-04-06T17:47:25.985Z,32.60
2018-04-06T17:49:53.537Z,32.90
2018-04-06T17:52:22.524Z,33.80
2018-04-06T17:54:49.992Z,33.70
2018-04-06T17:57:17.544Z,34.70
2018-04-06T17:59:44.996Z,34.70
2018-04-06T18:02:12.456Z,35.20
2018-04-06T18:04:40.043Z,35.50
2018-04-06T18:07:08.376Z,37.10
2018-04-06T18:09:35.921Z,37.00
2018-04-06T18:12:03.420Z,37.00
2018-04-06T18:14:30.905Z,36.60
2018-04-06T18:16:58.428Z,37.40
2018-04-06T18:19:25.947Z,37.70
2018-04-06T18:21:53.397Z,37.70
2018-04-06T18:24:20.904Z,38.50
2018-04-06T18:26:48.393Z,38.40
2018-04-06T18:29:15.913Z,38.50
2018-04-06T18:31:43.382Z,38.50
2018-04-06T18:34:10.929Z,38.60
2018-04-06T18:36:38.396Z,38.80
2018-04-06T18:39:05.941Z,39.40
2018-04-06T18:41:33.540Z,39.80
2018-04-06T18:44:01.040Z,40.50
2018-04-06T18:46:28.505Z,40.90
2018-04-06T18:48:55.968Z,40.00
2018-04-06T18:51:23.534Z,40.80
2018-04-06T18:53:51.002Z,41.00
2018-04-06T18:56:18.551Z,41.30
2018-04-06T18:58:46.120Z,42.50
2018-04-06T19:01:14.714Z,42.20
2018-04-06T19:03:42.947Z,42.40
2018-04-06T19:06:10.506Z,42.10
2018-04-06T19:08:38.039Z,42.40
2018-04-06T19:11:05.630Z,41.50
2018-04-06T19:13:33.706Z,41.60
2018-04-06T19:16:01.892Z,41.50
2018-04-06T19:18:29.641Z,41.50
2018-04-06T19:20:57.212Z,41.00
2018-04-06T19:23:24.681Z,40.40
2018-04-06T19:25:52.307Z,40.80
2018-04-06T19:28:19.876Z,40.20
2018-04-06T19:30:47.332Z,40.00
2018-04-06T19:33:14.908Z,39.90
2018-04-06T19:35:42.376Z,40.00
2018-04-06T19:38:10.622Z,40.30
2018-04-06T19:40:38.125Z,40.20
2018-04-06T19:43:05.622Z,40.30
2018-04-06T19:45:33.227Z,39.90
2018-04-06T19:48:01.590Z,39.40
2018-04-06T19:50:29.185Z,39.40
2018-04-06T19:52:57.296Z,39.60
2018-04-06T19:55:24.757Z,39.70
2018-04-06T19:57:52.245Z,40.00
2018-04-06T20:00:19.738Z,40.00
2018-04-06T20:02:47.260Z,39.80
2018-04-06T20:05:14.808Z,40.00
2018-04-06T20:07:42.290Z,39.90
2018-04-06T20:10:10.536Z,39.90
2018-04-06T20:12:38.239Z,39.80
2018-04-06T20:15:05.766Z,40.10
2018-04-06T20:17:33.249Z,40.40
2018-04-06T20:20:00.739Z,40.30
2018-04-06T20:22:28.250Z,40.40
2018-04-06T20:24:56.476Z,40.30
2018-04-06T20:27:23.980Z,40.30
2018-04-06T20:29:52.235Z,40.40
2018-04-06T20:32:19.806Z,40.40
2018-04-06T20:34:47.336Z,40.60
2018-04-06T20:37:14.814Z,40.70
2018-04-06T20:39:42.388Z,40.70
2018-04-06T20:42:10.652Z,41.30
2018-04-06T20:44:38.186Z,41.30
2018-04-06T20:47:05.670Z,41.20
2018-04-06T20:49:33.129Z,41.70
2018-04-06T20:52:01.407Z,42.00
2018-04-06T20:54:30.396Z,42.40
2018-04-06T20:56:57.995Z,42.40
2018-04-06T20:59:25.508Z,41.90
2018-04-06T21:01:53.110Z,41.50
2018-04-06T21:04:20.686Z,41.50
2018-04-06T21:06:48.180Z,41.50
2018-04-06T21:09:15.656Z,41.90
2018-04-06T21:11:43.917Z,42.70
2018-04-06T21:14:11.575Z,42.60
2018-04-06T21:16:39.150Z,43.20
2018-04-06T21:19:06.706Z,43.30
2018-04-06T21:21:34.161Z,43.50
2018-04-06T21:24:01.708Z,43.60
2018-04-06T21:26:29.260Z,43.60
2018-04-06T21:28:56.734Z,43.40
2018-04-06T21:31:24.202Z,43.40
2018-04-06T21:33:52.471Z,43.60
2018-04-06T21:36:19.936Z,43.60
2018-04-06T21:38:48.194Z,43.90
2018-04-06T21:41:15.707Z,43.80
2018-04-06T21:43:43.199Z,43.70
2018-04-06T21:46:10.652Z,44.30
2018-04-06T21:48:38.178Z,44.40
2018-04-06T21:51:05.737Z,44.40
2018-04-06T21:53:33.200Z,44.50
2018-04-06T21:56:00.652Z,44.50
2018-04-06T21:58:28.112Z,44.20
2018-04-06T22:00:55.567Z,44.30
2018-04-06T22:03:23.031Z,44.20
2018-04-06T22:05:50.517Z,44.40
2018-04-06T22:08:17.978Z,44.70
2018-04-06T22:10:45.491Z,44.50
2018-04-06T22:13:12.947Z,45.30
2018-04-06T22:15:40.448Z,45.10
2018-04-06T22:18:07.908Z,45.20
2018-04-06T22:20:35.364Z,45.10
2018-04-06T22:23:02.827Z,45.20
2018-04-06T22:25:30.283Z,45.30
2018-04-06T22:27:57.744Z,45.70
2018-04-06T22:30:25.245Z,45.90
2018-04-06T22:32:52.758Z,46.10
2018-04-06T22:35:20.990Z,46.50
2018-04-06T22:37:49.666Z,46.50
2018-04-06T22:40:17.222Z,46.70
2018-04-06T22:42:44.680Z,46.80
2018-04-06T22:45:12.207Z,46.80
2018-04-06T22:47:40.442Z,47.20
2018-04-06T22:50:07.896Z,47.20
2018-04-06T22:52:35.356Z,46.90
2018-04-06T22:55:02.809Z,47.00
2018-04-06T22:57:30.272Z,47.10
2018-04-06T22:59:57.830Z,47.30
2018-04-06T23:02:25.288Z,47.30
2018-04-06T23:04:52.849Z,47.70
2018-04-06T23:07:20.329Z,48.30
2018-04-06T23:09:48.590Z,48.40
2018-04-06T23:12:16.155Z,48.30
2018-04-06T23:14:43.697Z,48.20
2018-04-06T23:17:11.251Z,48.00
2018-04-06T23:19:38.711Z,48.10
2018-04-06T23:22:06.180Z,48.30
2018-04-06T23:24:33.642Z,48.80
2018-04-06T23:27:01.088Z,48.60
2018-04-06T23:29:28.552Z,48.70
2018-04-06T23:31:56.163Z,48.90
2018-04-06T23:34:23.657Z,48.80
2018-04-06T23:36:51.116Z,49.90
2018-04-06T23:39:18.590Z,49.50
2018-04-06T23:41:46.132Z,49.10
2018-04-06T23:44:13.597Z,49.60
2018-04-06T23:46:41.056Z,49.70
2018-04-06T23:49:08.603Z,49.80
2018-04-06T23:51:36.882Z,49.80
2018-04-06T23:54:04.334Z,49.80
2018-04-06T23:56:31.897Z,50.10
2018-04-06T23:58:59.354Z,50.00
